Flight Track Log - Related Links

Times and Time Zones

All times are in EDT time to prevent confusion due to time zone crossing. See the ASQ416T flight status page for this flight to view local times or setup timezone preferences in your user account.

Time Position Orientation Groundspeed Altitude Reporting Facility
EDT Latitude Longitude Course Direction KTS MPH feet Rate Location/Type
Thu 11:21:49 PM 29.9761 -95.3394 189° South 155 178 800  Level Houston Center
Thu 11:23:10 PM 29.9214 -95.3497 189° South 248 285 3,100 1,794 Climbing Houston Center
Thu 11:23:26 PM 29.9100 -95.3306 124° Southeast 254 292 3,700 1,869 Climbing Houston Center
Thu 11:24:11 PM 29.8931 -95.2733 109° East 256 295 5,000 1,981 Climbing Houston Center
Thu 11:25:12 PM 29.8906 -95.1858 92° East 270 311 7,200 2,115 Climbing Houston Center
Thu 11:26:13 PM 29.8886 -95.0950 91° East 280 322 9,300 1,770 Climbing Houston Center
Thu 11:27:14 PM 29.8861 -94.9978 92° East 297 342 10,800 1,180 Climbing Houston Center
Thu 11:28:15 PM 29.8822 -94.8881 92° East 336 387 11,700 1,131 Climbing Houston Center
Thu 11:29:16 PM 29.8786 -94.7714 92° East 360 414 13,100 1,438 Climbing Houston Center
Thu 11:30:16 PM 29.8742 -94.6514 92° East 370 426 14,600 1,388 Climbing Houston Center
Thu 11:31:17 PM 29.8697 -94.5311 92° East 376 433 15,900 1,377 Climbing Houston Center
Thu 11:32:18 PM 29.8658 -94.4103 92° East 377 434 17,400 1,426 Climbing Houston Center
Thu 11:33:19 PM 29.8614 -94.2900 92° East 377 434 18,800 1,180 Climbing Houston Center
Thu 11:34:20 PM 29.8581 -94.1542 92° East 385 443 19,800 984 Climbing Houston Center
Thu 11:35:21 PM 29.8558 -94.0264 91° East 398 458 20,800 984 Climbing Houston Center
Thu 11:36:22 PM 29.8694 -93.8956 83° East 412 474 21,800 984 Climbing Houston Center
Thu 11:37:23 PM 29.8831 -93.7650 83° East 413 475 22,800 984 Climbing Houston Center
Thu 11:38:24 PM 29.8972 -93.6314 83° East 421 484 23,800 942 Climbing Houston Center
Thu 11:39:24 PM 29.9108 -93.4967 83° East 426 490 24,700 595 Climbing Houston Center
Thu 11:40:25 PM 29.9250 -93.3614 83° East 430 495 25,000 148 Climbing Houston Center
Thu 11:41:26 PM 29.9392 -93.2200 83° East 446 513 25,000  Level Houston Center
Thu 11:42:27 PM 29.9531 -93.0742 84° East 460 529 25,000  Level Houston Center
Thu 11:43:28 PM 29.9697 -92.8983 84° East 463 533 25,000  Level Houston Center
Thu 11:44:29 PM 29.9653 -92.7489 92° East 472 543 25,000  Level Houston Center
Thu 11:45:30 PM 29.9608 -92.6017 92° East 464 534 25,000  Level Houston Center
Thu 11:46:31 PM 29.9556 -92.4578 92° East 455 524 25,000  Level Houston Center
Thu 11:47:31 PM 29.9506 -92.3117 92° East 459 528 25,000  Level Houston Center
Thu 11:48:32 PM 29.9508 -92.1650 90° East 459 528 25,000  Level Houston Center
Thu 11:49:33 PM 29.9747 -92.0225 79° East 454 522 25,000  Level Houston Center
Thu 11:50:34 PM 29.9967 -91.8808 80° East 453 521 25,000  Level Houston Center
Thu 11:51:35 PM 30.0192 -91.7378 80° East 453 521 25,000  Level Houston Center
Thu 11:52:36 PM 30.0439 -91.5828 80° East 461 531 25,000  Level Houston Center
Thu 11:53:37 PM 30.0647 -91.4419 80° East 449 517 25,000 -496 Level Houston Center
Thu 11:54:37 PM 30.0867 -91.3033 80° East 441 507 24,000 -496 Descending Houston Center
Thu 11:55:38 PM 30.1078 -91.1650 80° East 440 506 24,000  Level Houston Center
Thu 11:56:39 PM 30.1281 -91.0308 80° East 428 493 24,000 -49 Level Houston Center
Thu 11:57:40 PM 30.1486 -90.8975 80° East 425 489 23,900  Descending Houston Center
Thu 11:58:41 PM 30.1697 -90.7606 80° East 431 496 24,000  Climbing Houston Center
Thu 11:59:41 PM 30.1900 -90.6206 80° East 440 506 23,900  Descending Houston Center
Fri 12:00:42 AM 30.2144 -90.4567 80° East 435 501 24,000 49 Climbing Houston Center
Fri 12:01:43 AM 30.2342 -90.3186 81° East 436 502 24,000  Level Houston Center
Fri 12:02:44 AM 30.2544 -90.1786 80° East 442 509 24,000  Level Houston Center
Fri 12:03:44 AM 30.2739 -90.0389 81° East 442 509 24,000 -248 Level Houston Center
Fri 12:04:45 AM 30.2922 -89.9033 81° East 432 497 23,500 -1,574 Descending Houston Center
Fri 12:05:46 AM 30.3106 -89.7664 81° East 427 491 20,800 -2,628 Descending Houston Center
Fri 12:06:46 AM 30.3281 -89.6500 80° East 409 471 18,200 -2,380 Descending Houston Center
Fri 12:07:47 AM 30.3450 -89.5281 81° East 394 453 16,000 -1,377 Descending Houston Center
Fri 12:08:48 AM 30.3606 -89.4136 81° East 371 427 15,400 -1,835 Descending Houston Center
Fri 12:09:48 AM 30.3781 -89.2864 81° East 341 392 12,300 -2,579 Descending Houston Center
Fri 12:10:49 AM 30.3914 -89.1864 81° East 324 373 10,200 -1,721 Descending Houston Center
Fri 12:11:50 AM 30.4025 -89.1036 81° East 272 313 8,800 -1,686 Descending Houston Center
Fri 12:12:50 AM 30.3756 -89.0408 116° Southeast 234 269 6,800 -2,033 Descending Houston Center
Fri 12:13:51 AM 30.3322 -88.9886 134° Southeast 225 259 4,700 -1,835 Descending Houston Center
Fri 12:14:51 AM 30.2958 -88.9444 134° Southeast 219 252 3,100 -843 Descending Houston Center
Fri 12:15:52 AM 30.2531 -88.9081 144° Southeast 201 231 3,000 -49 Descending Houston Center
Fri 12:16:53 AM 30.1969 -88.9086 180° South 200 230 3,000 -50 Level Houston Center
Fri 12:17:53 AM 30.1528 -88.8764 148° Southeast 188 216 2,900  Descending Houston Center
Fri 12:18:54 AM 30.1881 -88.8389 43° Northeast 193 222 3,000 50 Climbing Houston Center
Fri 12:19:54 AM 30.2378 -88.8781 326° Northwest 219 252 3,000  Level Houston Center
Fri 12:20:55 AM 30.2806 -88.9286 314° West 221 254 3,000 -446 Level Houston Center
Fri 12:21:55 AM 30.3208 -88.9736 316° Northwest 220 253 2,100 -900 Descending Houston Center

Login

Don't have an account? Register now (free) for customized features, flight alerts, and more!